sensor_id;sensor_type;location;lat;lon;timestamp;temperature;humidity
12268;DHT22;6196;48.398;11.736;2023-03-01T00:01:06;2.50;99.90
12268;DHT22;6196;48.398;11.736;2023-03-01T00:03:34;2.50;99.90
12268;DHT22;6196;48.398;11.736;2023-03-01T00:06:02;2.50;99.90
12268;DHT22;6196;48.398;11.736;2023-03-01T00:08:29;2.60;99.90
12268;DHT22;6196;48.398;11.736;2023-03-01T00:11:17;2.60;99.90
12268;DHT22;6196;48.398;11.736;2023-03-01T00:13:47;2.50;99.90
12268;DHT22;6196;48.398;11.736;2023-03-01T00:16:17;2.60;99.90
12268;DHT22;6196;48.398;11.736;2023-03-01T00:18:48;2.50;99.90
12268;DHT22;6196;48.398;11.736;2023-03-01T00:21:15;2.50;99.90
12268;DHT22;6196;48.398;11.736;2023-03-01T00:23:44;2.50;99.90
12268;DHT22;6196;48.398;11.736;2023-03-01T00:26:13;2.50;99.90
12268;DHT22;6196;48.398;11.736;2023-03-01T00:28:41;2.50;99.90
12268;DHT22;6196;48.398;11.736;2023-03-01T00:31:16;2.50;99.90
12268;DHT22;6196;48.398;11.736;2023-03-01T00:33:46;2.50;99.90
12268;DHT22;6196;48.398;11.736;2023-03-01T00:36:15;2.50;99.90
12268;DHT22;6196;48.398;11.736;2023-03-01T00:38:44;2.40;99.90
12268;DHT22;6196;48.398;11.736;2023-03-01T00:41:16;2.50;99.90
12268;DHT22;6196;48.398;11.736;2023-03-01T00:43:44;2.50;99.90
12268;DHT22;6196;48.398;11.736;2023-03-01T00:46:15;2.50;99.90
12268;DHT22;6196;48.398;11.736;2023-03-01T00:48:44;2.50;99.90
12268;DHT22;6196;48.398;11.736;2023-03-01T00:53:44;2.40;99.90
12268;DHT22;6196;48.398;11.736;2023-03-01T00:56:13;2.40;99.90
12268;DHT22;6196;48.398;11.736;2023-03-01T00:58:41;2.50;99.90
12268;DHT22;6196;48.398;11.736;2023-03-01T01:01:13;2.50;99.90
12268;DHT22;6196;48.398;11.736;2023-03-01T01:03:53;2.50;99.90
12268;DHT22;6196;48.398;11.736;2023-03-01T01:06:24;2.50;99.90
12268;DHT22;6196;48.398;11.736;2023-03-01T01:08:53;2.50;99.90
12268;DHT22;6196;48.398;11.736;2023-03-01T01:11:23;2.50;99.90
12268;DHT22;6196;48.398;11.736;2023-03-01T01:13:51;2.50;99.90
12268;DHT22;6196;48.398;11.736;2023-03-01T01:16:19;2.60;99.90
12268;DHT22;6196;48.398;11.736;2023-03-01T01:18:46;2.50;99.90
12268;DHT22;6196;48.398;11.736;2023-03-01T01:21:16;2.50;99.90
12268;DHT22;6196;48.398;11.736;2023-03-01T01:23:45;2.50;99.90
12268;DHT22;6196;48.398;11.736;2023-03-01T01:26:15;2.40;99.90
12268;DHT22;6196;48.398;11.736;2023-03-01T01:28:45;2.40;99.90
12268;DHT22;6196;48.398;11.736;2023-03-01T01:31:14;2.40;99.90
12268;DHT22;6196;48.398;11.736;2023-03-01T01:33:41;2.40;99.90
12268;DHT22;6196;48.398;11.736;2023-03-01T01:36:09;2.20;99.90
12268;DHT22;6196;48.398;11.736;2023-03-01T01:38:37;2.30;99.90
12268;DHT22;6196;48.398;11.736;2023-03-01T01:41:05;2.30;99.90
12268;DHT22;6196;48.398;11.736;2023-03-01T01:43:36;2.20;99.90
12268;DHT22;6196;48.398;11.736;2023-03-01T01:48:52;2.20;99.90
12268;DHT22;6196;48.398;11.736;2023-03-01T01:51:25;2.20;99.90
12268;DHT22;6196;48.398;11.736;2023-03-01T01:53:58;2.30;99.90
12268;DHT22;6196;48.398;11.736;2023-03-01T01:56:27;2.30;99.90
12268;DHT22;6196;48.398;11.736;2023-03-01T01:58:56;2.30;99.90
12268;DHT22;6196;48.398;11.736;2023-03-01T02:01:23;2.30;99.90
12268;DHT22;6196;48.398;11.736;2023-03-01T02:03:51;2.30;99.90
12268;DHT22;6196;48.398;11.736;2023-03-01T02:06:38;2.30;99.90
12268;DHT22;6196;48.398;11.736;2023-03-01T02:09:12;2.20;99.90
12268;DHT22;6196;48.398;11.736;2023-03-01T02:11:41;2.20;99.90
12268;DHT22;6196;48.398;11.736;2023-03-01T02:14:09;2.20;99.90
12268;DHT22;6196;48.398;11.736;2023-03-01T02:16:36;2.20;99.90
12268;DHT22;6196;48.398;11.736;2023-03-01T02:19:04;2.20;99.90
12268;DHT22;6196;48.398;11.736;2023-03-01T02:24:34;2.20;99.90
12268;DHT22;6196;48.398;11.736;2023-03-01T02:27:07;2.20;99.90
12268;DHT22;6196;48.398;11.736;2023-03-01T02:29:35;2.10;99.90
12268;DHT22;6196;48.398;11.736;2023-03-01T02:32:03;2.10;99.90
12268;DHT22;6196;48.398;11.736;2023-03-01T02:34:32;2.00;99.90
12268;DHT22;6196;48.398;11.736;2023-03-01T02:37:14;2.20;99.90
12268;DHT22;6196;48.398;11.736;2023-03-01T02:39:48;2.00;99.90
12268;DHT22;6196;48.398;11.736;2023-03-01T02:42:25;2.00;99.90
12268;DHT22;6196;48.398;11.736;2023-03-01T02:44:53;1.90;99.90
12268;DHT22;6196;48.398;11.736;2023-03-01T02:47:20;1.90;99.90
12268;DHT22;6196;48.398;11.736;2023-03-01T02:49:47;1.90;99.90
12268;DHT22;6196;48.398;11.736;2023-03-01T02:52:40;1.80;99.90
12268;DHT22;6196;48.398;11.736;2023-03-01T02:55:14;1.80;99.90
12268;DHT22;6196;48.398;11.736;2023-03-01T02:57:44;1.80;99.90
12268;DHT22;6196;48.398;11.736;2023-03-01T03:00:18;1.70;99.90
12268;DHT22;6196;48.398;11.736;2023-03-01T03:02:56;1.70;99.90
12268;DHT22;6196;48.398;11.736;2023-03-01T03:05:29;1.70;99.90
12268;DHT22;6196;48.398;11.736;2023-03-01T03:07:59;1.70;99.90
12268;DHT22;6196;48.398;11.736;2023-03-01T03:10:31;1.60;99.90
12268;DHT22;6196;48.398;11.736;2023-03-01T03:13:08;1.70;99.90
12268;DHT22;6196;48.398;11.736;2023-03-01T03:15:36;1.60;99.90
12268;DHT22;6196;48.398;11.736;2023-03-01T03:18:08;1.60;99.90
12268;DHT22;6196;48.398;11.736;2023-03-01T03:20:40;1.50;99.90
12268;DHT22;6196;48.398;11.736;2023-03-01T03:23:07;1.40;99.90
12268;DHT22;6196;48.398;11.736;2023-03-01T03:25:34;1.30;99.90
12268;DHT22;6196;48.398;11.736;2023-03-01T03:28:05;1.20;99.90
12268;DHT22;6196;48.398;11.736;2023-03-01T03:30:38;1.10;99.90
12268;DHT22;6196;48.398;11.736;2023-03-01T03:33:06;1.00;99.90
12268;DHT22;6196;48.398;11.736;2023-03-01T03:36:00;0.80;99.90
12268;DHT22;6196;48.398;11.736;2023-03-01T03:38:26;0.60;99.90
12268;DHT22;6196;48.398;11.736;2023-03-01T03:41:02;0.60;99.90
12268;DHT22;6196;48.398;11.736;2023-03-01T03:43:34;0.50;99.90
12268;DHT22;6196;48.398;11.736;2023-03-01T03:46:02;0.40;99.90
12268;DHT22;6196;48.398;11.736;2023-03-01T03:48:35;0.40;99.90
12268;DHT22;6196;48.398;11.736;2023-03-01T03:51:04;0.30;99.90
12268;DHT22;6196;48.398;11.736;2023-03-01T03:53:33;0.30;99.90
12268;DHT22;6196;48.398;11.736;2023-03-01T03:56:00;0.30;99.90
12268;DHT22;6196;48.398;11.736;2023-03-01T03:58:27;0.30;99.90
12268;DHT22;6196;48.398;11.736;2023-03-01T04:00:56;0.20;99.90
12268;DHT22;6196;48.398;11.736;2023-03-01T04:03:25;0.10;99.90
12268;DHT22;6196;48.398;11.736;2023-03-01T04:05:52;0.10;99.90
12268;DHT22;6196;48.398;11.736;2023-03-01T04:08:21;0.10;99.90
12268;DHT22;6196;48.398;11.736;2023-03-01T04:10:56;0.00;99.90
12268;DHT22;6196;48.398;11.736;2023-03-01T04:13:25;0.00;99.90
12268;DHT22;6196;48.398;11.736;2023-03-01T04:15:53;0.00;99.90
12268;DHT22;6196;48.398;11.736;2023-03-01T04:18:22;0.00;99.90
12268;DHT22;6196;48.398;11.736;2023-03-01T04:20:50;0.00;99.90
12268;DHT22;6196;48.398;11.736;2023-03-01T04:23:19;-0.10;99.90
12268;DHT22;6196;48.398;11.736;2023-03-01T04:25:57;-0.10;99.90
12268;DHT22;6196;48.398;11.736;2023-03-01T04:28:32;-0.10;99.90
12268;DHT22;6196;48.398;11.736;2023-03-01T04:31:06;-0.20;99.90
12268;DHT22;6196;48.398;11.736;2023-03-01T04:33:48;-0.10;99.90
12268;DHT22;6196;48.398;11.736;2023-03-01T04:36:20;-0.10;99.90
12268;DHT22;6196;48.398;11.736;2023-03-01T04:38:49;-0.10;99.90
12268;DHT22;6196;48.398;11.736;2023-03-01T04:41:18;-0.30;99.90
12268;DHT22;6196;48.398;11.736;2023-03-01T04:43:46;-0.30;99.90
12268;DHT22;6196;48.398;11.736;2023-03-01T04:46:17;-0.30;99.90
12268;DHT22;6196;48.398;11.736;2023-03-01T04:48:45;-0.30;99.90
12268;DHT22;6196;48.398;11.736;2023-03-01T04:51:13;-0.30;99.90
12268;DHT22;6196;48.398;11.736;2023-03-01T04:53:41;-0.30;99.90
12268;DHT22;6196;48.398;11.736;2023-03-01T04:56:09;-0.30;99.90
12268;DHT22;6196;48.398;11.736;2023-03-01T04:58:36;-0.20;99.90
12268;DHT22;6196;48.398;11.736;2023-03-01T05:01:09;-0.20;99.90
12268;DHT22;6196;48.398;11.736;2023-03-01T05:03:44;-0.30;99.90
12268;DHT22;6196;48.398;11.736;2023-03-01T05:06:14;-0.30;99.90
12268;DHT22;6196;48.398;11.736;2023-03-01T05:08:42;-0.30;99.90
12268;DHT22;6196;48.398;11.736;2023-03-01T05:11:10;-0.40;99.90
12268;DHT22;6196;48.398;11.736;2023-03-01T05:13:38;-0.40;99.90
12268;DHT22;6196;48.398;11.736;2023-03-01T05:16:07;-0.30;99.90
12268;DHT22;6196;48.398;11.736;2023-03-01T05:18:38;-0.40;99.90
12268;DHT22;6196;48.398;11.736;2023-03-01T05:21:09;-0.40;99.90
12268;DHT22;6196;48.398;11.736;2023-03-01T05:23:38;-0.40;99.90
12268;DHT22;6196;48.398;11.736;2023-03-01T05:26:05;-0.40;99.90
12268;DHT22;6196;48.398;11.736;2023-03-01T05:28:39;-0.50;99.90
12268;DHT22;6196;48.398;11.736;2023-03-01T05:31:06;-0.40;99.90
12268;DHT22;6196;48.398;11.736;2023-03-01T05:33:37;-0.50;99.90
12268;DHT22;6196;48.398;11.736;2023-03-01T05:36:06;-0.50;99.90
12268;DHT22;6196;48.398;11.736;2023-03-01T05:38:34;-0.50;99.90
12268;DHT22;6196;48.398;11.736;2023-03-01T05:41:01;-0.50;99.90
12268;DHT22;6196;48.398;11.736;2023-03-01T05:43:31;-0.50;99.90
12268;DHT22;6196;48.398;11.736;2023-03-01T05:46:01;-0.60;99.90
12268;DHT22;6196;48.398;11.736;2023-03-01T05:48:28;-0.50;99.90
12268;DHT22;6196;48.398;11.736;2023-03-01T05:50:59;-0.50;99.90
12268;DHT22;6196;48.398;11.736;2023-03-01T05:53:27;-0.60;99.90
12268;DHT22;6196;48.398;11.736;2023-03-01T05:55:54;-0.50;99.90
12268;DHT22;6196;48.398;11.736;2023-03-01T05:58:20;-0.60;99.90
12268;DHT22;6196;48.398;11.736;2023-03-01T06:00:48;-0.60;99.90
12268;DHT22;6196;48.398;11.736;2023-03-01T06:03:17;-0.70;99.90
12268;DHT22;6196;48.398;11.736;2023-03-01T06:05:44;-0.60;99.90
12268;DHT22;6196;48.398;11.736;2023-03-01T06:08:13;-0.70;99.90
12268;DHT22;6196;48.398;11.736;2023-03-01T06:10:40;-0.60;99.90
12268;DHT22;6196;48.398;11.736;2023-03-01T06:13:07;-0.60;99.90
12268;DHT22;6196;48.398;11.736;2023-03-01T06:15:34;-0.50;99.90
12268;DHT22;6196;48.398;11.736;2023-03-01T06:18:01;-0.50;99.90
12268;DHT22;6196;48.398;11.736;2023-03-01T06:20:28;-0.40;99.90
12268;DHT22;6196;48.398;11.736;2023-03-01T06:22:56;-0.50;99.90
12268;DHT22;6196;48.398;11.736;2023-03-01T06:25:25;-0.40;99.90
12268;DHT22;6196;48.398;11.736;2023-03-01T06:27:53;-0.40;99.90
12268;DHT22;6196;48.398;11.736;2023-03-01T06:30:22;-0.30;99.90
12268;DHT22;6196;48.398;11.736;2023-03-01T06:32:49;-0.20;99.90
12268;DHT22;6196;48.398;11.736;2023-03-01T06:35:18;-0.10;99.90
12268;DHT22;6196;48.398;11.736;2023-03-01T06:37:46;0.00;99.90
12268;DHT22;6196;48.398;11.736;2023-03-01T06:40:14;0.00;99.90
12268;DHT22;6196;48.398;11.736;2023-03-01T06:42:47;0.20;99.90
12268;DHT22;6196;48.398;11.736;2023-03-01T06:45:16;0.30;99.90
12268;DHT22;6196;48.398;11.736;2023-03-01T06:47:47;0.40;99.90
12268;DHT22;6196;48.398;11.736;2023-03-01T06:50:14;0.50;99.90
12268;DHT22;6196;48.398;11.736;2023-03-01T06:52:42;0.70;99.90
12268;DHT22;6196;48.398;11.736;2023-03-01T06:55:12;0.90;99.90
12268;DHT22;6196;48.398;11.736;2023-03-01T06:57:39;1.00;99.90
12268;DHT22;6196;48.398;11.736;2023-03-01T07:00:07;1.10;99.90
12268;DHT22;6196;48.398;11.736;2023-03-01T07:02:34;1.20;99.90
12268;DHT22;6196;48.398;11.736;2023-03-01T07:05:01;1.40;99.90
12268;DHT22;6196;48.398;11.736;2023-03-01T07:07:28;1.40;99.90
12268;DHT22;6196;48.398;11.736;2023-03-01T07:09:55;1.60;99.90
12268;DHT22;6196;48.398;11.736;2023-03-01T07:12:22;1.70;99.90
12268;DHT22;6196;48.398;11.736;2023-03-01T07:14:49;1.90;99.90
12268;DHT22;6196;48.398;11.736;2023-03-01T07:17:16;2.10;99.90
12268;DHT22;6196;48.398;11.736;2023-03-01T07:19:42;2.30;99.90
12268;DHT22;6196;48.398;11.736;2023-03-01T07:22:11;2.30;99.90
12268;DHT22;6196;48.398;11.736;2023-03-01T07:24:38;2.40;99.90
12268;DHT22;6196;48.398;11.736;2023-03-01T07:27:04;2.50;99.90
12268;DHT22;6196;48.398;11.736;2023-03-01T07:29:31;2.70;99.90
12268;DHT22;6196;48.398;11.736;2023-03-01T07:31:58;3.00;99.90
12268;DHT22;6196;48.398;11.736;2023-03-01T07:34:25;3.20;99.90
12268;DHT22;6196;48.398;11.736;2023-03-01T07:36:52;3.00;99.90
12268;DHT22;6196;48.398;11.736;2023-03-01T07:39:19;2.90;99.90
12268;DHT22;6196;48.398;11.736;2023-03-01T07:41:46;2.90;99.90
12268;DHT22;6196;48.398;11.736;2023-03-01T07:44:13;3.10;99.90
12268;DHT22;6196;48.398;11.736;2023-03-01T07:46:40;3.20;99.90
12268;DHT22;6196;48.398;11.736;2023-03-01T07:49:06;3.30;99.90
12268;DHT22;6196;48.398;11.736;2023-03-01T07:51:33;3.30;99.90
12268;DHT22;6196;48.398;11.736;2023-03-01T07:54:00;3.50;99.90
12268;DHT22;6196;48.398;11.736;2023-03-01T07:56:27;3.70;99.90
12268;DHT22;6196;48.398;11.736;2023-03-01T07:58:55;3.60;99.90
12268;DHT22;6196;48.398;11.736;2023-03-01T08:01:21;3.80;99.90
12268;DHT22;6196;48.398;11.736;2023-03-01T08:03:49;4.00;99.90
12268;DHT22;6196;48.398;11.736;2023-03-01T08:06:17;3.80;99.90
12268;DHT22;6196;48.398;11.736;2023-03-01T08:08:45;4.00;99.90
12268;DHT22;6196;48.398;11.736;2023-03-01T08:11:13;4.20;99.90
12268;DHT22;6196;48.398;11.736;2023-03-01T08:13:41;4.40;99.90
12268;DHT22;6196;48.398;11.736;2023-03-01T08:16:14;4.50;99.90
12268;DHT22;6196;48.398;11.736;2023-03-01T08:18:42;4.50;99.90
12268;DHT22;6196;48.398;11.736;2023-03-01T08:21:15;4.20;99.90
12268;DHT22;6196;48.398;11.736;2023-03-01T08:23:43;4.40;99.90
12268;DHT22;6196;48.398;11.736;2023-03-01T08:26:16;4.30;99.90
12268;DHT22;6196;48.398;11.736;2023-03-01T08:28:45;4.70;99.90
12268;DHT22;6196;48.398;11.736;2023-03-01T08:31:25;4.90;99.90
12268;DHT22;6196;48.398;11.736;2023-03-01T08:33:55;5.30;99.90
12268;DHT22;6196;48.398;11.736;2023-03-01T08:36:26;5.00;99.90
12268;DHT22;6196;48.398;11.736;2023-03-01T08:38:54;5.30;99.90
12268;DHT22;6196;48.398;11.736;2023-03-01T08:41:21;5.50;99.90
12268;DHT22;6196;48.398;11.736;2023-03-01T08:43:49;5.40;99.90
12268;DHT22;6196;48.398;11.736;2023-03-01T08:46:16;5.60;99.90
12268;DHT22;6196;48.398;11.736;2023-03-01T08:48:43;5.70;99.90
12268;DHT22;6196;48.398;11.736;2023-03-01T08:51:12;5.70;99.90
12268;DHT22;6196;48.398;11.736;2023-03-01T08:53:42;5.30;99.90
12268;DHT22;6196;48.398;11.736;2023-03-01T08:56:09;5.50;99.90
12268;DHT22;6196;48.398;11.736;2023-03-01T08:58:37;5.40;99.90
12268;DHT22;6196;48.398;11.736;2023-03-01T09:01:10;5.60;99.90
12268;DHT22;6196;48.398;11.736;2023-03-01T09:03:39;6.10;99.90
12268;DHT22;6196;48.398;11.736;2023-03-01T09:06:07;6.80;99.90
12268;DHT22;6196;48.398;11.736;2023-03-01T09:08:35;7.00;99.90
12268;DHT22;6196;48.398;11.736;2023-03-01T09:11:05;7.80;99.90
12268;DHT22;6196;48.398;11.736;2023-03-01T09:13:33;7.70;99.90
12268;DHT22;6196;48.398;11.736;2023-03-01T09:16:02;7.40;99.90
12268;DHT22;6196;48.398;11.736;2023-03-01T09:18:31;6.80;99.90
12268;DHT22;6196;48.398;11.736;2023-03-01T09:21:17;6.20;99.90
12268;DHT22;6196;48.398;11.736;2023-03-01T09:23:56;6.10;99.90
12268;DHT22;6196;48.398;11.736;2023-03-01T09:26:25;6.10;99.90
12268;DHT22;6196;48.398;11.736;2023-03-01T09:28:54;6.00;99.90
12268;DHT22;6196;48.398;11.736;2023-03-01T09:31:23;6.00;99.90
12268;DHT22;6196;48.398;11.736;2023-03-01T09:33:52;5.60;99.90
12268;DHT22;6196;48.398;11.736;2023-03-01T09:36:22;5.60;99.90
12268;DHT22;6196;48.398;11.736;2023-03-01T09:38:51;5.90;99.90
12268;DHT22;6196;48.398;11.736;2023-03-01T09:44:30;6.00;99.90
12268;DHT22;6196;48.398;11.736;2023-03-01T09:47:00;6.50;99.90
12268;DHT22;6196;48.398;11.736;2023-03-01T09:49:31;6.40;99.90
12268;DHT22;6196;48.398;11.736;2023-03-01T09:52:21;6.60;99.90
12268;DHT22;6196;48.398;11.736;2023-03-01T09:54:54;6.70;99.90
12268;DHT22;6196;48.398;11.736;2023-03-01T09:57:30;6.60;99.90
12268;DHT22;6196;48.398;11.736;2023-03-01T10:03:07;6.60;99.90
12268;DHT22;6196;48.398;11.736;2023-03-01T10:08:27;6.10;99.90
12268;DHT22;6196;48.398;11.736;2023-03-01T10:10:57;6.20;99.90
12268;DHT22;6196;48.398;11.736;2023-03-01T10:13:42;6.40;99.90
12268;DHT22;6196;48.398;11.736;2023-03-01T10:17:04;6.60;99.90
12268;DHT22;6196;48.398;11.736;2023-03-01T10:19:14;7.20;99.90
12268;DHT22;6196;48.398;11.736;2023-03-01T10:21:45;7.60;99.90
12268;DHT22;6196;48.398;11.736;2023-03-01T10:24:15;7.50;99.90
12268;DHT22;6196;48.398;11.736;2023-03-01T10:26:55;7.40;99.90
12268;DHT22;6196;48.398;11.736;2023-03-01T10:29:34;7.20;99.90
12268;DHT22;6196;48.398;11.736;2023-03-01T10:32:05;7.00;99.90
12268;DHT22;6196;48.398;11.736;2023-03-01T10:34:35;8.20;99.90
12268;DHT22;6196;48.398;11.736;2023-03-01T10:37:14;9.30;99.90
12268;DHT22;6196;48.398;11.736;2023-03-01T10:39:56;9.40;98.60
12268;DHT22;6196;48.398;11.736;2023-03-01T10:42:35;8.80;99.10
12268;DHT22;6196;48.398;11.736;2023-03-01T10:47:42;8.70;98.30
12268;DHT22;6196;48.398;11.736;2023-03-01T10:50:20;8.80;98.50
12268;DHT22;6196;48.398;11.736;2023-03-01T10:53:03;9.10;97.80
12268;DHT22;6196;48.398;11.736;2023-03-01T10:55:38;8.80;98.40
12268;DHT22;6196;48.398;11.736;2023-03-01T11:00:57;9.50;98.50
12268;DHT22;6196;48.398;11.736;2023-03-01T11:03:30;10.00;96.80
12268;DHT22;6196;48.398;11.736;2023-03-01T11:06:03;9.80;97.00
12268;DHT22;6196;48.398;11.736;2023-03-01T11:08:44;9.10;97.30
12268;DHT22;6196;48.398;11.736;2023-03-01T11:11:21;9.10;97.30
12268;DHT22;6196;48.398;11.736;2023-03-01T11:13:54;9.30;97.10
12268;DHT22;6196;48.398;11.736;2023-03-01T11:17:05;9.30;97.20
12268;DHT22;6196;48.398;11.736;2023-03-01T11:19:38;9.20;98.10
12268;DHT22;6196;48.398;11.736;2023-03-01T11:24:45;10.20;96.40
12268;DHT22;6196;48.398;11.736;2023-03-01T11:27:31;10.00;96.00
12268;DHT22;6196;48.398;11.736;2023-03-01T11:30:13;10.20;95.90
12268;DHT22;6196;48.398;11.736;2023-03-01T11:33:19;10.20;95.60
12268;DHT22;6196;48.398;11.736;2023-03-01T11:35:55;10.80;95.30
12268;DHT22;6196;48.398;11.736;2023-03-01T11:38:28;10.60;95.40
12268;DHT22;6196;48.398;11.736;2023-03-01T11:41:07;10.90;94.80
12268;DHT22;6196;48.398;11.736;2023-03-01T11:43:55;10.40;94.90
12268;DHT22;6196;48.398;11.736;2023-03-01T11:51:58;11.10;94.40
12268;DHT22;6196;48.398;11.736;2023-03-01T11:55:05;11.90;94.20
12268;DHT22;6196;48.398;11.736;2023-03-01T11:58:00;12.40;92.60
12268;DHT22;6196;48.398;11.736;2023-03-01T12:04:14;11.80;92.70
12268;DHT22;6196;48.398;11.736;2023-03-01T12:07:41;11.90;92.70
12268;DHT22;6196;48.398;11.736;2023-03-01T12:10:27;13.40;93.60
12268;DHT22;6196;48.398;11.736;2023-03-01T12:18:21;15.00;89.60
12268;DHT22;6196;48.398;11.736;2023-03-01T12:21:08;15.90;86.00
12268;DHT22;6196;48.398;11.736;2023-03-01T12:24:08;15.70;84.10
12268;DHT22;6196;48.398;11.736;2023-03-01T12:27:07;15.90;84.10
12268;DHT22;6196;48.398;11.736;2023-03-01T12:29:55;17.00;81.00
12268;DHT22;6196;48.398;11.736;2023-03-01T12:32:50;17.20;77.60
12268;DHT22;6196;48.398;11.736;2023-03-01T12:38:31;16.60;74.70
12268;DHT22;6196;48.398;11.736;2023-03-01T12:49:49;15.00;78.30
12268;DHT22;6196;48.398;11.736;2023-03-01T12:52:33;16.10;77.10
12268;DHT22;6196;48.398;11.736;2023-03-01T12:55:19;16.10;77.00
12268;DHT22;6196;48.398;11.736;2023-03-01T12:58:06;16.40;75.70
12268;DHT22;6196;48.398;11.736;2023-03-01T13:04:02;17.10;74.10
12268;DHT22;6196;48.398;11.736;2023-03-01T13:17:57;17.00;72.50
12268;DHT22;6196;48.398;11.736;2023-03-01T13:26:03;16.50;73.80
12268;DHT22;6196;48.398;11.736;2023-03-01T13:28:54;17.10;73.20
12268;DHT22;6196;48.398;11.736;2023-03-01T13:33:56;18.10;70.70
12268;DHT22;6196;48.398;11.736;2023-03-01T13:50:01;17.50;69.50
12268;DHT22;6196;48.398;11.736;2023-03-01T13:52:32;17.50;69.20
12268;DHT22;6196;48.398;11.736;2023-03-01T13:55:42;17.70;69.90
12268;DHT22;6196;48.398;11.736;2023-03-01T13:58:20;18.40;68.40
12268;DHT22;6196;48.398;11.736;2023-03-01T14:01:05;18.70;68.30
12268;DHT22;6196;48.398;11.736;2023-03-01T14:03:40;18.80;67.20
12268;DHT22;6196;48.398;11.736;2023-03-01T14:06:22;18.60;68.50
12268;DHT22;6196;48.398;11.736;2023-03-01T14:09:15;18.30;67.40
12268;DHT22;6196;48.398;11.736;2023-03-01T14:15:02;18.70;68.70
12268;DHT22;6196;48.398;11.736;2023-03-01T14:17:58;20.20;65.60
12268;DHT22;6196;48.398;11.736;2023-03-01T14:20:37;20.50;64.80
12268;DHT22;6196;48.398;11.736;2023-03-01T14:23:15;21.40;65.00
12268;DHT22;6196;48.398;11.736;2023-03-01T14:25:55;22.60;62.60
12268;DHT22;6196;48.398;11.736;2023-03-01T14:28:24;23.50;62.10
12268;DHT22;6196;48.398;11.736;2023-03-01T14:30:55;24.40;60.10
12268;DHT22;6196;48.398;11.736;2023-03-01T14:33:36;24.40;57.90
12268;DHT22;6196;48.398;11.736;2023-03-01T14:36:10;24.50;57.80
12268;DHT22;6196;48.398;11.736;2023-03-01T14:41:15;23.90;56.50
12268;DHT22;6196;48.398;11.736;2023-03-01T14:43:46;23.00;57.00
12268;DHT22;6196;48.398;11.736;2023-03-01T14:46:21;22.00;57.40
12268;DHT22;6196;48.398;11.736;2023-03-01T14:48:54;22.10;58.90
12268;DHT22;6196;48.398;11.736;2023-03-01T14:51:23;23.10;59.00
12268;DHT22;6196;48.398;11.736;2023-03-01T14:53:51;23.90;57.80
12268;DHT22;6196;48.398;11.736;2023-03-01T14:56:18;24.10;56.10
12268;DHT22;6196;48.398;11.736;2023-03-01T14:58:46;23.10;56.60
12268;DHT22;6196;48.398;11.736;2023-03-01T15:01:18;22.80;56.30
12268;DHT22;6196;48.398;11.736;2023-03-01T15:03:47;22.30;57.80
12268;DHT22;6196;48.398;11.736;2023-03-01T15:06:18;22.70;58.70
12268;DHT22;6196;48.398;11.736;2023-03-01T15:08:48;22.30;58.30
12268;DHT22;6196;48.398;11.736;2023-03-01T15:11:22;22.10;57.70
12268;DHT22;6196;48.398;11.736;2023-03-01T15:13:52;22.30;58.10
12268;DHT22;6196;48.398;11.736;2023-03-01T15:16:27;22.30;57.70
12268;DHT22;6196;48.398;11.736;2023-03-01T15:21:37;21.30;58.10
12268;DHT22;6196;48.398;11.736;2023-03-01T15:24:17;20.90;58.60
12268;DHT22;6196;48.398;11.736;2023-03-01T15:26:52;21.20;58.90
12268;DHT22;6196;48.398;11.736;2023-03-01T15:29:29;21.20;58.10
12268;DHT22;6196;48.398;11.736;2023-03-01T15:35:01;21.10;58.70
12268;DHT22;6196;48.398;11.736;2023-03-01T15:41:30;18.70;60.70
12268;DHT22;6196;48.398;11.736;2023-03-01T15:44:00;16.70;64.60
12268;DHT22;6196;48.398;11.736;2023-03-01T15:46:46;15.40;67.90
12268;DHT22;6196;48.398;11.736;2023-03-01T15:49:31;14.00;70.80
12268;DHT22;6196;48.398;11.736;2023-03-01T15:52:23;13.20;73.60
12268;DHT22;6196;48.398;11.736;2023-03-01T15:55:13;12.70;74.80
12268;DHT22;6196;48.398;11.736;2023-03-01T15:57:48;12.20;76.90
12268;DHT22;6196;48.398;11.736;2023-03-01T16:00:16;11.70;77.90
12268;DHT22;6196;48.398;11.736;2023-03-01T16:02:44;11.20;80.30
12268;DHT22;6196;48.398;11.736;2023-03-01T16:05:24;10.90;80.90
12268;DHT22;6196;48.398;11.736;2023-03-01T16:07:53;10.60;82.70
12268;DHT22;6196;48.398;11.736;2023-03-01T16:10:20;10.50;83.60
12268;DHT22;6196;48.398;11.736;2023-03-01T16:12:48;10.30;84.30
12268;DHT22;6196;48.398;11.736;2023-03-01T16:15:32;10.20;85.20
12268;DHT22;6196;48.398;11.736;2023-03-01T16:18:02;10.00;86.90
12268;DHT22;6196;48.398;11.736;2023-03-01T16:20:29;10.00;87.20
12268;DHT22;6196;48.398;11.736;2023-03-01T16:23:01;9.90;89.00
12268;DHT22;6196;48.398;11.736;2023-03-01T16:25:29;9.60;90.00
12268;DHT22;6196;48.398;11.736;2023-03-01T16:27:57;9.30;90.60
12268;DHT22;6196;48.398;11.736;2023-03-01T16:30:26;9.20;91.20
12268;DHT22;6196;48.398;11.736;2023-03-01T16:32:53;9.10;91.90
12268;DHT22;6196;48.398;11.736;2023-03-01T16:35:21;8.70;92.50
12268;DHT22;6196;48.398;11.736;2023-03-01T16:37:49;8.60;92.80
12268;DHT22;6196;48.398;11.736;2023-03-01T16:40:24;8.60;93.00
12268;DHT22;6196;48.398;11.736;2023-03-01T16:42:54;8.40;93.20
12268;DHT22;6196;48.398;11.736;2023-03-01T16:45:27;8.30;93.50
12268;DHT22;6196;48.398;11.736;2023-03-01T16:47:55;8.20;93.70
12268;DHT22;6196;48.398;11.736;2023-03-01T16:50:22;8.10;94.10
12268;DHT22;6196;48.398;11.736;2023-03-01T16:52:49;8.00;94.10
12268;DHT22;6196;48.398;11.736;2023-03-01T16:55:16;7.90;94.30
12268;DHT22;6196;48.398;11.736;2023-03-01T16:57:43;7.70;94.60
12268;DHT22;6196;48.398;11.736;2023-03-01T17:00:12;7.40;95.00
12268;DHT22;6196;48.398;11.736;2023-03-01T17:02:41;7.10;96.10
12268;DHT22;6196;48.398;11.736;2023-03-01T17:05:09;6.90;96.40
12268;DHT22;6196;48.398;11.736;2023-03-01T17:07:38;6.70;97.20
12268;DHT22;6196;48.398;11.736;2023-03-01T17:10:08;6.60;97.70
12268;DHT22;6196;48.398;11.736;2023-03-01T17:12:37;6.40;98.10
12268;DHT22;6196;48.398;11.736;2023-03-01T17:15:05;6.40;98.60
12268;DHT22;6196;48.398;11.736;2023-03-01T17:17:33;6.30;99.10
12268;DHT22;6196;48.398;11.736;2023-03-01T17:20:01;6.10;99.60
12268;DHT22;6196;48.398;11.736;2023-03-01T17:22:30;6.00;99.90
12268;DHT22;6196;48.398;11.736;2023-03-01T17:24:57;5.80;99.90
12268;DHT22;6196;48.398;11.736;2023-03-01T17:27:24;5.80;99.90
12268;DHT22;6196;48.398;11.736;2023-03-01T17:29:51;5.70;99.90
12268;DHT22;6196;48.398;11.736;2023-03-01T17:32:18;5.60;99.90
12268;DHT22;6196;48.398;11.736;2023-03-01T17:34:45;5.60;99.90
12268;DHT22;6196;48.398;11.736;2023-03-01T17:37:12;5.70;99.90
12268;DHT22;6196;48.398;11.736;2023-03-01T17:39:39;5.70;99.90
12268;DHT22;6196;48.398;11.736;2023-03-01T17:42:05;5.70;99.90
12268;DHT22;6196;48.398;11.736;2023-03-01T17:44:33;5.50;99.90
12268;DHT22;6196;48.398;11.736;2023-03-01T17:47:01;5.50;99.90
12268;DHT22;6196;48.398;11.736;2023-03-01T17:49:29;5.40;99.90
12268;DHT22;6196;48.398;11.736;2023-03-01T17:51:56;5.30;99.90
12268;DHT22;6196;48.398;11.736;2023-03-01T17:54:24;5.20;99.90